createdAt,value
2018-05-06T00:00:39.544Z,1028.28
2018-05-06T00:01:39.569Z,1028.29
2018-05-06T00:02:39.591Z,1028.26
2018-05-06T00:03:39.613Z,1028.25
2018-05-06T00:04:39.638Z,1028.21
2018-05-06T00:05:39.668Z,1028.19
2018-05-06T00:06:39.697Z,1028.22
2018-05-06T00:07:39.717Z,1028.18
2018-05-06T00:08:39.746Z,1028.14
2018-05-06T00:09:39.767Z,1028.16
2018-05-06T00:10:39.791Z,1028.14
2018-05-06T00:11:39.817Z,1028.14
2018-05-06T00:12:39.842Z,1028.15
2018-05-06T00:13:39.866Z,1028.14
2018-05-06T00:14:39.896Z,1028.12
2018-05-06T00:15:39.924Z,1028.15
2018-05-06T00:16:39.951Z,1028.17
2018-05-06T00:17:39.976Z,1028.18
2018-05-06T00:18:39.996Z,1028.21
2018-05-06T00:19:40.021Z,1028.16
2018-05-06T00:20:40.046Z,1028.18
2018-05-06T00:21:40.075Z,1028.21
2018-05-06T00:22:40.096Z,1028.20
2018-05-06T00:23:40.120Z,1028.20
2018-05-06T00:24:40.145Z,1028.24
2018-05-06T00:25:40.172Z,1028.21
2018-05-06T00:26:40.199Z,1028.22
2018-05-06T00:27:40.221Z,1028.23
2018-05-06T00:28:40.250Z,1028.21
2018-05-06T00:29:40.280Z,1028.21
2018-05-06T00:30:40.297Z,1028.22
2018-05-06T00:31:40.320Z,1028.23
2018-05-06T00:32:40.350Z,1028.20
2018-05-06T00:33:40.383Z,1028.20
2018-05-06T00:34:40.405Z,1028.18
2018-05-06T00:35:40.426Z,1028.18
2018-05-06T00:36:40.450Z,1028.14
2018-05-06T00:37:40.472Z,1028.14
2018-05-06T00:38:40.503Z,1028.12
2018-05-06T00:39:40.529Z,1028.13
2018-05-06T00:40:40.550Z,1028.10
2018-05-06T00:41:40.577Z,1028.09
2018-05-06T00:42:40.603Z,1028.13
2018-05-06T00:43:40.625Z,1028.12
2018-05-06T00:44:40.650Z,1028.11
2018-05-06T00:45:40.672Z,1028.09
2018-05-06T00:46:40.700Z,1028.11
2018-05-06T00:47:40.727Z,1028.11
2018-05-06T00:48:40.750Z,1028.09
2018-05-06T00:49:40.775Z,1028.09
2018-05-06T00:50:40.799Z,1028.09
2018-05-06T00:51:40.829Z,1028.09
2018-05-06T00:52:40.849Z,1028.10
2018-05-06T00:53:40.879Z,1028.09
2018-05-06T00:54:40.904Z,1028.11
2018-05-06T00:55:40.928Z,1028.09
2018-05-06T00:56:40.956Z,1028.13
2018-05-06T00:57:40.983Z,1028.09
2018-05-06T00:58:41.008Z,1028.09
2018-05-06T00:59:41.043Z,1028.13
2018-05-06T01:00:41.051Z,1028.13
2018-05-06T01:01:41.083Z,1028.12
2018-05-06T01:02:41.104Z,1028.14
2018-05-06T01:03:41.126Z,1028.18
2018-05-06T01:04:41.152Z,1028.19
2018-05-06T01:05:41.179Z,1028.21
2018-05-06T01:06:41.205Z,1028.21
2018-05-06T01:07:41.227Z,1028.22
2018-05-06T01:08:41.257Z,1028.23
2018-05-06T01:09:41.280Z,1028.23
2018-05-06T01:10:41.308Z,1028.18
2018-05-06T01:11:41.329Z,1028.22
2018-05-06T01:12:41.356Z,1028.19
2018-05-06T01:13:41.383Z,1028.18
2018-05-06T01:14:41.405Z,1028.20
2018-05-06T01:15:41.428Z,1028.19
2018-05-06T01:16:41.456Z,1028.17
2018-05-06T01:17:41.481Z,1028.20
2018-05-06T01:18:41.507Z,1028.14
2018-05-06T01:19:41.529Z,1028.16
2018-05-06T01:20:41.552Z,1028.12
2018-05-06T01:21:41.580Z,1028.12
2018-05-06T01:22:41.603Z,1028.11
2018-05-06T01:23:41.628Z,1028.07
2018-05-06T01:24:41.648Z,1028.10
2018-05-06T01:25:41.677Z,1028.06
2018-05-06T01:26:41.703Z,1028.05
2018-05-06T01:27:41.730Z,1028.08
2018-05-06T01:28:41.760Z,1028.10
2018-05-06T01:29:41.779Z,1028.10
2018-05-06T01:30:41.799Z,1028.11
2018-05-06T01:31:41.868Z,1028.11
2018-05-06T01:32:41.849Z,1028.13
2018-05-06T01:33:41.878Z,1028.10
2018-05-06T01:34:41.907Z,1028.11
2018-05-06T01:35:41.923Z,1028.11
2018-05-06T01:36:41.948Z,1028.13
2018-05-06T01:37:41.973Z,1028.12
2018-05-06T01:38:42.012Z,1028.18
2018-05-06T01:39:42.027Z,1028.15
2018-05-06T01:40:42.051Z,1028.15
2018-05-06T01:41:42.078Z,1028.17
2018-05-06T01:42:42.101Z,1028.20
2018-05-06T01:43:42.127Z,1028.18
2018-05-06T01:44:42.233Z,1028.17
2018-05-06T01:45:42.172Z,1028.19
2018-05-06T01:46:42.201Z,1028.16
2018-05-06T01:47:42.228Z,1028.12
2018-05-06T01:48:42.247Z,1028.09
2018-05-06T01:49:42.272Z,1028.09
2018-05-06T01:50:42.301Z,1028.09
2018-05-06T01:51:42.326Z,1028.05
2018-05-06T01:52:42.347Z,1028.06
2018-05-06T01:53:42.376Z,1028.03
2018-05-06T01:54:42.396Z,1028.00
2018-05-06T01:55:42.426Z,1028.00
2018-05-06T01:56:42.442Z,1028.01
2018-05-06T01:57:42.466Z,1028.00
2018-05-06T01:58:42.497Z,1027.98
2018-05-06T01:59:42.516Z,1027.98
2018-05-06T02:00:42.545Z,1028.03
2018-05-06T02:01:42.570Z,1028.01
2018-05-06T02:02:42.595Z,1028.01
2018-05-06T02:03:42.619Z,1028.00
2018-05-06T02:04:42.646Z,1028.01
2018-05-06T02:05:42.670Z,1028.04
2018-05-06T02:06:42.690Z,1028.07
2018-05-06T02:07:42.716Z,1028.04
2018-05-06T02:08:42.735Z,1028.03
2018-05-06T02:09:42.766Z,1028.06
2018-05-06T02:10:42.792Z,1028.06
2018-05-06T02:11:42.816Z,1028.05
2018-05-06T02:12:42.856Z,1028.02
2018-05-06T02:13:42.860Z,1028.08
2018-05-06T02:14:42.893Z,1028.05
2018-05-06T02:15:42.911Z,1028.07
2018-05-06T02:16:42.941Z,1028.05
2018-05-06T02:17:42.962Z,1028.08
2018-05-06T02:18:42.985Z,1028.04
2018-05-06T02:19:43.011Z,1028.02
2018-05-06T02:20:43.030Z,1028.01
2018-05-06T02:21:43.061Z,1028.01
2018-05-06T02:22:43.086Z,1028.03
2018-05-06T02:23:43.109Z,1027.99
2018-05-06T02:24:43.134Z,1027.98
2018-05-06T02:25:43.162Z,1028.01
2018-05-06T02:26:43.180Z,1027.99
2018-05-06T02:27:43.208Z,1028.02
2018-05-06T02:28:43.234Z,1028.06
2018-05-06T02:29:43.257Z,1028.04
2018-05-06T02:30:43.280Z,1028.04
2018-05-06T02:31:43.310Z,1028.06
2018-05-06T02:32:43.327Z,1028.06
2018-05-06T02:33:43.358Z,1028.06
2018-05-06T02:34:43.385Z,1028.09
2018-05-06T02:35:43.411Z,1028.08
2018-05-06T02:36:43.438Z,1028.12
2018-05-06T02:37:43.449Z,1028.15
2018-05-06T02:38:43.483Z,1028.18
2018-05-06T02:39:43.506Z,1028.20
2018-05-06T02:40:43.525Z,1028.17
2018-05-06T02:41:43.555Z,1028.10
2018-05-06T02:42:43.570Z,1028.15
2018-05-06T02:43:43.594Z,1028.12
2018-05-06T02:44:43.625Z,1028.12
2018-05-06T02:45:43.644Z,1028.11
2018-05-06T02:46:43.671Z,1028.12
2018-05-06T02:47:43.693Z,1028.09
2018-05-06T02:48:43.713Z,1028.05
2018-05-06T02:49:43.745Z,1028.06
2018-05-06T02:50:43.826Z,1028.06
2018-05-06T02:51:43.794Z,1028.07
2018-05-06T02:52:43.818Z,1028.04
2018-05-06T02:53:43.840Z,1028.02
2018-05-06T02:54:43.868Z,1028.03
2018-05-06T02:55:43.956Z,1028.02
2018-05-06T02:56:43.912Z,1028.04
2018-05-06T02:57:43.939Z,1028.00
2018-05-06T02:58:43.960Z,1028.03
2018-05-06T02:59:43.984Z,1028.09
2018-05-06T03:00:44.009Z,1028.07
2018-05-06T03:01:44.029Z,1028.08
2018-05-06T03:02:44.059Z,1028.08
2018-05-06T03:03:44.084Z,1028.07
2018-05-06T03:04:44.107Z,1028.04
2018-05-06T03:05:44.130Z,1028.06
2018-05-06T03:06:44.154Z,1028.06
2018-05-06T03:07:44.181Z,1028.06
2018-05-06T03:08:44.204Z,1028.05
2018-05-06T03:09:44.224Z,1028.05
2018-05-06T03:10:44.251Z,1028.06
2018-05-06T03:11:44.274Z,1028.02
2018-05-06T03:12:44.296Z,1028.01
2018-05-06T03:13:44.325Z,1028.03
2018-05-06T03:14:44.347Z,1028.01
2018-05-06T03:15:44.371Z,1028.07
2018-05-06T03:16:44.393Z,1028.03
2018-05-06T03:17:44.418Z,1028.05
2018-05-06T03:18:44.439Z,1028.07
2018-05-06T03:19:44.463Z,1028.07
2018-05-06T03:20:44.488Z,1028.04
2018-05-06T03:21:44.512Z,1028.07
2018-05-06T03:22:44.536Z,1028.02
2018-05-06T03:23:44.562Z,1028.01
2018-05-06T03:24:44.583Z,1028.02
2018-05-06T03:25:44.613Z,1027.96
2018-05-06T03:26:44.632Z,1027.96
2018-05-06T03:27:44.658Z,1027.98
2018-05-06T03:28:44.682Z,1028.00
2018-05-06T03:29:44.714Z,1028.02
2018-05-06T03:30:44.735Z,1028.04
2018-05-06T03:31:44.758Z,1028.08
2018-05-06T03:32:44.783Z,1028.08
2018-05-06T03:33:44.803Z,1028.12
2018-05-06T03:34:44.831Z,1028.13
2018-05-06T03:35:44.852Z,1028.14
2018-05-06T03:36:44.872Z,1028.15
2018-05-06T03:37:44.902Z,1028.17
2018-05-06T03:38:44.928Z,1028.19
2018-05-06T03:39:44.963Z,1028.21
2018-05-06T03:40:44.972Z,1028.24
2018-05-06T03:41:44.998Z,1028.24
2018-05-06T03:42:45.021Z,1028.22
2018-05-06T03:43:45.046Z,1028.27
2018-05-06T03:44:45.072Z,1028.26
2018-05-06T03:45:45.101Z,1028.31
2018-05-06T03:46:45.159Z,1028.29
2018-05-06T03:47:45.144Z,1028.28
2018-05-06T03:48:45.162Z,1028.28
2018-05-06T03:49:45.187Z,1028.29
2018-05-06T03:50:45.211Z,1028.28
2018-05-06T03:51:45.240Z,1028.30
2018-05-06T03:52:45.256Z,1028.31
2018-05-06T03:53:45.296Z,1028.30
2018-05-06T03:54:45.306Z,1028.33
2018-05-06T03:55:45.330Z,1028.34
2018-05-06T03:56:45.351Z,1028.32
2018-05-06T03:57:45.376Z,1028.34
2018-05-06T03:58:45.401Z,1028.36
2018-05-06T03:59:45.426Z,1028.36
2018-05-06T04:00:45.450Z,1028.34
2018-05-06T04:01:45.477Z,1028.32
2018-05-06T04:02:45.500Z,1028.31
2018-05-06T04:03:45.524Z,1028.30
2018-05-06T04:04:45.546Z,1028.30
2018-05-06T04:05:45.579Z,1028.29
2018-05-06T04:06:45.595Z,1028.27
2018-05-06T04:07:45.623Z,1028.30
2018-05-06T04:08:45.640Z,1028.26
2018-05-06T04:09:45.665Z,1028.28
2018-05-06T04:10:45.694Z,1028.28
2018-05-06T04:11:45.746Z,1028.31
2018-05-06T04:12:45.739Z,1028.32
2018-05-06T04:13:45.763Z,1028.39
2018-05-06T04:14:45.788Z,1028.41
2018-05-06T04:15:45.810Z,1028.44
2018-05-06T04:16:45.835Z,1028.45
2018-05-06T04:17:45.859Z,1028.46
2018-05-06T04:18:45.884Z,1028.46
2018-05-06T04:19:45.909Z,1028.47
2018-05-06T04:20:45.928Z,1028.48
2018-05-06T04:21:45.964Z,1028.50
2018-05-06T04:22:45.980Z,1028.43
2018-05-06T04:23:46.000Z,1028.49
2018-05-06T04:24:46.028Z,1028.44
2018-05-06T04:25:46.051Z,1028.46
2018-05-06T04:26:46.155Z,1028.46
2018-05-06T04:27:46.099Z,1028.50
2018-05-06T04:28:46.120Z,1028.48
2018-05-06T04:29:46.152Z,1028.48
2018-05-06T04:30:46.173Z,1028.53
2018-05-06T04:31:46.195Z,1028.51
2018-05-06T04:32:46.223Z,1028.52
2018-05-06T04:33:46.246Z,1028.52
2018-05-06T04:34:46.272Z,1028.51
2018-05-06T04:35:46.289Z,1028.51
2018-05-06T04:36:46.315Z,1028.54
2018-05-06T04:37:46.337Z,1028.57
2018-05-06T04:38:46.364Z,1028.57
2018-05-06T04:39:46.389Z,1028.59
2018-05-06T04:40:46.409Z,1028.63
2018-05-06T04:41:46.438Z,1028.57
2018-05-06T04:42:46.460Z,1028.58
2018-05-06T04:43:46.487Z,1028.58
2018-05-06T04:44:46.509Z,1028.61
2018-05-06T04:45:46.533Z,1028.60
2018-05-06T04:46:46.559Z,1028.54
2018-05-06T04:47:46.582Z,1028.59
2018-05-06T04:48:46.607Z,1028.57
2018-05-06T04:49:46.631Z,1028.57
2018-05-06T04:50:46.654Z,1028.58
2018-05-06T04:51:46.684Z,1028.58
2018-05-06T04:52:46.705Z,1028.58
2018-05-06T04:53:46.727Z,1028.62
2018-05-06T04:54:46.751Z,1028.62
2018-05-06T04:55:46.777Z,1028.59
2018-05-06T04:56:46.807Z,1028.59
2018-05-06T04:57:46.824Z,1028.61
2018-05-06T04:58:46.843Z,1028.58
2018-05-06T04:59:46.870Z,1028.55
2018-05-06T05:00:46.893Z,1028.58
2018-05-06T05:01:46.917Z,1028.60
2018-05-06T05:02:46.938Z,1028.57
2018-05-06T05:03:46.967Z,1028.59
2018-05-06T05:04:46.988Z,1028.57
2018-05-06T05:05:47.013Z,1028.54
2018-05-06T05:06:47.041Z,1028.54
2018-05-06T05:07:47.063Z,1028.53
2018-05-06T05:08:47.095Z,1028.53
2018-05-06T05:09:47.116Z,1028.50
2018-05-06T05:10:47.133Z,1028.48
2018-05-06T05:11:47.157Z,1028.46
2018-05-06T05:12:47.183Z,1028.47
2018-05-06T05:13:47.206Z,1028.44
2018-05-06T05:14:47.233Z,1028.45
2018-05-06T05:15:47.261Z,1028.45
2018-05-06T05:16:47.277Z,1028.46
2018-05-06T05:17:47.304Z,1028.45
2018-05-06T05:18:47.331Z,1028.46
2018-05-06T05:19:47.389Z,1028.45
2018-05-06T05:20:47.475Z,1028.49
2018-05-06T05:21:47.407Z,1028.50
2018-05-06T05:22:47.431Z,1028.50
2018-05-06T05:23:47.456Z,1028.52
2018-05-06T05:24:47.477Z,1028.59
2018-05-06T05:25:47.496Z,1028.54
2018-05-06T05:26:47.523Z,1028.57
2018-05-06T05:27:47.552Z,1028.58
2018-05-06T05:28:47.572Z,1028.55
2018-05-06T05:29:47.599Z,1028.59
2018-05-06T05:30:47.623Z,1028.59
2018-05-06T05:31:47.647Z,1028.57
2018-05-06T05:32:47.666Z,1028.62
2018-05-06T05:33:47.696Z,1028.65
2018-05-06T05:34:47.716Z,1028.63
2018-05-06T05:35:47.749Z,1028.63
2018-05-06T05:36:47.766Z,1028.64
2018-05-06T05:37:47.787Z,1028.65
2018-05-06T05:38:47.819Z,1028.67
2018-05-06T05:39:47.838Z,1028.68
2018-05-06T05:40:47.862Z,1028.64
2018-05-06T05:41:47.886Z,1028.65
2018-05-06T05:42:47.916Z,1028.64
2018-05-06T05:43:47.946Z,1028.62
2018-05-06T05:44:47.961Z,1028.65
2018-05-06T05:45:47.992Z,1028.62
2018-05-06T05:46:48.011Z,1028.64
2018-05-06T05:47:48.122Z,1028.64
2018-05-06T05:48:48.066Z,1028.64
2018-05-06T05:49:48.082Z,1028.65
2018-05-06T05:50:48.114Z,1028.66
2018-05-06T05:51:48.135Z,1028.70
2018-05-06T05:52:48.160Z,1028.68
2018-05-06T05:53:48.180Z,1028.73
2018-05-06T05:54:48.207Z,1028.72
2018-05-06T05:55:48.234Z,1028.74
2018-05-06T05:56:48.264Z,1028.77
2018-05-06T05:57:48.278Z,1028.77
2018-05-06T05:58:48.303Z,1028.81
2018-05-06T05:59:48.326Z,1028.81
2018-05-06T06:00:48.353Z,1028.81
2018-05-06T06:01:48.375Z,1028.85
2018-05-06T06:02:48.400Z,1028.84
2018-05-06T06:03:48.424Z,1028.86
2018-05-06T06:04:48.450Z,1028.87
2018-05-06T06:05:48.476Z,1028.85
2018-05-06T06:06:48.503Z,1028.85
2018-05-06T06:07:48.524Z,1028.87
2018-05-06T06:08:48.555Z,1028.85
2018-05-06T06:09:48.660Z,1028.90
2018-05-06T06:10:48.614Z,1028.90
2018-05-06T06:11:48.625Z,1028.91
2018-05-06T06:12:48.645Z,1028.93
2018-05-06T06:13:48.681Z,1028.92
2018-05-06T06:14:48.700Z,1028.95
2018-05-06T06:15:48.726Z,1028.99
2018-05-06T06:16:48.747Z,1029.01
2018-05-06T06:17:48.771Z,1029.02
2018-05-06T06:18:48.807Z,1029.03
2018-05-06T06:19:48.821Z,1029.04
2018-05-06T06:20:48.844Z,1029.04
2018-05-06T06:21:48.870Z,1029.06
2018-05-06T06:22:48.895Z,1029.08
2018-05-06T06:23:48.920Z,1029.09
2018-05-06T06:24:48.947Z,1029.10
2018-05-06T06:25:48.969Z,1029.11
2018-05-06T06:26:48.997Z,1029.13
2018-05-06T06:27:49.018Z,1029.10
2018-05-06T06:28:49.046Z,1029.11
2018-05-06T06:29:49.070Z,1029.12
2018-05-06T06:30:49.100Z,1029.11
2018-05-06T06:31:49.119Z,1029.09
2018-05-06T06:32:49.144Z,1029.09
2018-05-06T06:33:49.173Z,1029.08
2018-05-06T06:34:49.197Z,1029.09
2018-05-06T06:35:49.222Z,1029.12
2018-05-06T06:36:49.245Z,1029.14
2018-05-06T06:37:49.272Z,1029.14
2018-05-06T06:38:49.299Z,1029.20
2018-05-06T06:39:49.321Z,1029.17
2018-05-06T06:40:49.343Z,1029.17
2018-05-06T06:41:49.373Z,1029.19
2018-05-06T06:42:49.393Z,1029.18
2018-05-06T06:43:49.422Z,1029.14
2018-05-06T06:44:49.441Z,1029.16
2018-05-06T06:45:49.468Z,1029.18
2018-05-06T06:46:49.494Z,1029.11
2018-05-06T06:47:49.521Z,1029.09
2018-05-06T06:48:49.557Z,1029.09
2018-05-06T06:49:49.571Z,1029.03
2018-05-06T06:50:49.601Z,1029.11
2018-05-06T06:51:49.622Z,1029.08
2018-05-06T06:52:49.642Z,1029.10
2018-05-06T06:53:49.680Z,1029.10
2018-05-06T06:54:49.693Z,1029.13
2018-05-06T06:55:49.775Z,1029.11
2018-05-06T06:56:49.743Z,1029.11
2018-05-06T06:57:49.771Z,1029.14
2018-05-06T06:58:49.806Z,1029.09
2018-05-06T06:59:49.816Z,1029.13
2018-05-06T07:00:49.852Z,1029.09
2018-05-06T07:01:49.881Z,1029.06
2018-05-06T07:02:49.896Z,1029.06
2018-05-06T07:03:49.923Z,1029.07
2018-05-06T07:04:49.950Z,1029.04
2018-05-06T07:05:50.044Z,1029.02
2018-05-06T07:06:49.998Z,1028.99
2018-05-06T07:07:50.024Z,1029.02
2018-05-06T07:08:50.052Z,1029.02
2018-05-06T07:09:50.071Z,1029.00
2018-05-06T07:10:50.097Z,1029.02
2018-05-06T07:11:50.124Z,1028.98
2018-05-06T07:12:50.146Z,1029.02
2018-05-06T07:13:50.174Z,1028.98
2018-05-06T07:14:50.196Z,1028.96
2018-05-06T07:15:50.226Z,1028.96
2018-05-06T07:16:50.246Z,1028.93
2018-05-06T07:17:50.276Z,1028.92
2018-05-06T07:18:50.302Z,1028.90
2018-05-06T07:19:50.327Z,1028.89
2018-05-06T07:20:50.350Z,1028.89
2018-05-06T07:21:50.375Z,1028.87
2018-05-06T07:22:50.406Z,1028.90
2018-05-06T07:23:50.428Z,1028.93
2018-05-06T07:24:50.451Z,1028.90
2018-05-06T07:25:50.475Z,1028.91
2018-05-06T07:26:50.504Z,1028.87
2018-05-06T07:27:50.530Z,1028.86
2018-05-06T07:28:50.549Z,1028.82
2018-05-06T07:29:50.637Z,1028.80
2018-05-06T07:30:50.610Z,1028.80
2018-05-06T07:31:50.629Z,1028.77
2018-05-06T07:32:50.655Z,1028.78
2018-05-06T07:33:50.681Z,1028.82
2018-05-06T07:37:17.886Z,1028.80
2018-05-06T07:38:17.907Z,1028.78
2018-05-06T07:39:17.931Z,1028.78
2018-05-06T07:40:17.961Z,1028.78
2018-05-06T07:41:17.982Z,1028.78
2018-05-06T07:42:18.012Z,1028.74
2018-05-06T07:43:18.036Z,1028.74
2018-05-06T07:44:18.066Z,1028.70
2018-05-06T07:45:18.090Z,1028.67
2018-05-06T07:46:18.112Z,1028.70
2018-05-06T07:47:18.136Z,1028.68
2018-05-06T07:48:18.163Z,1028.72
2018-05-06T07:49:18.192Z,1028.69
2018-05-06T07:50:18.217Z,1028.75
2018-05-06T07:51:18.243Z,1028.76
2018-05-06T07:52:18.266Z,1028.79
2018-05-06T07:53:18.298Z,1028.83
2018-05-06T07:54:18.318Z,1028.84
2018-05-06T07:55:18.348Z,1028.84
2018-05-06T07:56:18.380Z,1028.89
2018-05-06T07:57:18.397Z,1028.89
2018-05-06T07:58:18.422Z,1028.94
2018-05-06T07:59:18.449Z,1028.91
2018-05-06T08:00:18.480Z,1028.94
2018-05-06T08:01:18.511Z,1028.98
2018-05-06T08:02:18.535Z,1028.91
2018-05-06T08:03:18.553Z,1028.94
2018-05-06T08:04:18.576Z,1028.94
2018-05-06T08:05:18.602Z,1028.92
2018-05-06T08:06:18.627Z,1028.96
2018-05-06T08:07:18.661Z,1028.97
2018-05-06T08:08:18.680Z,1028.97
2018-05-06T08:09:18.706Z,1028.98
2018-05-06T08:10:18.742Z,1028.99
2018-05-06T08:11:18.756Z,1028.99
2018-05-06T08:12:18.784Z,1029.01
2018-05-06T08:13:18.821Z,1028.99
2018-05-06T08:14:18.836Z,1028.99
2018-05-06T08:15:18.861Z,1029.01
2018-05-06T08:16:18.993Z,1028.99
2018-05-06T08:17:18.916Z,1029.00
2018-05-06T08:18:18.937Z,1029.02
2018-05-06T08:19:18.965Z,1029.01
2018-05-06T08:20:18.992Z,1029.04
2018-05-06T08:21:19.015Z,1029.03
2018-05-06T08:22:19.047Z,1029.05
2018-05-06T08:23:19.074Z,1029.02
2018-05-06T08:24:19.095Z,1029.06
2018-05-06T08:25:19.125Z,1029.02
2018-05-06T08:26:19.151Z,1029.01
2018-05-06T08:27:19.181Z,1028.96
2018-05-06T08:28:19.201Z,1028.92
2018-05-06T08:29:19.226Z,1028.88
2018-05-06T08:30:19.250Z,1028.86
2018-05-06T08:31:19.277Z,1028.89
2018-05-06T08:32:19.305Z,1028.88
2018-05-06T08:33:19.331Z,1028.89
2018-05-06T08:34:19.357Z,1028.87
2018-05-06T08:35:19.380Z,1028.89
2018-05-06T08:36:19.414Z,1028.90
2018-05-06T08:37:19.446Z,1028.88
2018-05-06T08:38:19.460Z,1028.86
2018-05-06T08:39:19.489Z,1028.89
2018-05-06T08:40:19.514Z,1028.88
2018-05-06T08:41:19.553Z,1028.90
2018-05-06T08:42:19.569Z,1028.92
2018-05-06T08:43:19.594Z,1028.88
2018-05-06T08:44:19.620Z,1028.89
2018-05-06T08:45:19.650Z,1028.89
2018-05-06T08:46:19.688Z,1028.84
2018-05-06T08:47:19.695Z,1028.87
2018-05-06T08:48:19.719Z,1028.81
2018-05-06T08:49:19.750Z,1028.86
2018-05-06T08:50:19.775Z,1028.84
2018-05-06T08:51:19.810Z,1028.84
2018-05-06T08:52:19.829Z,1028.85
2018-05-06T08:53:19.862Z,1028.88
2018-05-06T08:54:19.888Z,1028.87
2018-05-06T08:55:19.905Z,1028.89
2018-05-06T08:56:19.936Z,1028.81
2018-05-06T08:57:19.961Z,1028.84
2018-05-06T08:58:19.990Z,1028.83
2018-05-06T08:59:20.020Z,1028.77
2018-05-06T09:00:20.049Z,1028.77
2018-05-06T09:01:20.067Z,1028.77
2018-05-06T09:02:20.093Z,1028.75
2018-05-06T09:03:20.121Z,1028.75
2018-05-06T09:04:20.150Z,1028.70
2018-05-06T09:05:20.169Z,1028.72
2018-05-06T09:06:20.199Z,1028.74
2018-05-06T09:07:20.224Z,1028.71
2018-05-06T09:08:20.263Z,1028.72
2018-05-06T09:09:20.278Z,1028.71
2018-05-06T09:10:20.311Z,1028.74
2018-05-06T09:11:20.332Z,1028.74
2018-05-06T09:12:20.360Z,1028.71
2018-05-06T09:13:20.387Z,1028.76
2018-05-06T09:14:20.411Z,1028.74
2018-05-06T09:15:20.433Z,1028.68
2018-05-06T09:16:20.463Z,1028.69
2018-05-06T09:17:20.488Z,1028.65
2018-05-06T09:18:20.513Z,1028.62
2018-05-06T09:19:20.547Z,1028.67
2018-05-06T09:20:20.572Z,1028.66
2018-05-06T09:21:20.598Z,1028.61
2018-05-06T09:22:20.622Z,1028.67
2018-05-06T09:23:20.653Z,1028.63
2018-05-06T09:24:20.680Z,1028.62
2018-05-06T09:25:20.711Z,1028.61
2018-05-06T09:26:20.729Z,1028.58
2018-05-06T09:27:20.751Z,1028.55
2018-05-06T09:28:20.782Z,1028.55
2018-05-06T09:29:20.811Z,1028.58
2018-05-06T09:30:20.835Z,1028.58
2018-05-06T09:31:20.866Z,1028.56
2018-05-06T09:32:20.920Z,1028.53
2018-05-06T09:33:20.913Z,1028.55
2018-05-06T09:34:20.942Z,1028.56
2018-05-06T09:35:20.967Z,1028.55
2018-05-06T09:36:21.002Z,1028.52
2018-05-06T09:37:21.025Z,1028.55
2018-05-06T09:38:21.051Z,1028.56
2018-05-06T09:39:21.086Z,1028.54
2018-05-06T09:40:21.100Z,1028.56
2018-05-06T09:41:21.131Z,1028.57
2018-05-06T09:42:21.161Z,1028.58
2018-05-06T09:43:21.181Z,1028.58
2018-05-06T09:44:21.275Z,1028.56
2018-05-06T09:45:21.238Z,1028.53
2018-05-06T09:46:21.262Z,1028.52
2018-05-06T09:47:21.286Z,1028.53
2018-05-06T09:48:21.316Z,1028.55
2018-05-06T09:49:21.347Z,1028.58
2018-05-06T09:50:21.405Z,1028.55
2018-05-06T09:51:21.396Z,1028.56
2018-05-06T09:52:21.422Z,1028.59
2018-05-06T09:53:21.454Z,1028.59
2018-05-06T09:54:21.476Z,1028.58
2018-05-06T09:55:21.503Z,1028.56
2018-05-06T09:56:21.533Z,1028.56
2018-05-06T09:57:21.561Z,1028.49
2018-05-06T09:58:21.590Z,1028.52
2018-05-06T09:59:21.613Z,1028.52
2018-05-06T10:00:21.704Z,1028.55
2018-05-06T10:01:21.707Z,1028.51
2018-05-06T10:02:21.691Z,1028.52
2018-05-06T10:03:21.730Z,1028.52
2018-05-06T10:04:21.748Z,1028.49
2018-05-06T10:05:21.779Z,1028.49
2018-05-06T10:06:21.806Z,1028.46
2018-05-06T10:07:21.832Z,1028.46
2018-05-06T10:08:21.917Z,1028.50
2018-05-06T10:09:21.885Z,1028.46
2018-05-06T10:10:21.911Z,1028.51
2018-05-06T10:11:21.936Z,1028.48
2018-05-06T10:12:21.967Z,1028.50
2018-05-06T10:13:21.998Z,1028.49
2018-05-06T10:14:22.020Z,1028.45
2018-05-06T10:15:22.045Z,1028.48
2018-05-06T10:16:22.076Z,1028.43
2018-05-06T10:17:22.100Z,1028.43
2018-05-06T10:18:22.131Z,1028.41
2018-05-06T10:19:22.159Z,1028.43
2018-05-06T10:20:22.181Z,1028.42
2018-05-06T10:21:22.209Z,1028.38
2018-05-06T10:22:22.247Z,1028.42
2018-05-06T10:23:22.268Z,1028.40
2018-05-06T10:24:22.290Z,1028.38
2018-05-06T10:25:22.320Z,1028.37
2018-05-06T10:26:22.348Z,1028.35
2018-05-06T10:27:22.376Z,1028.40
2018-05-06T10:28:22.405Z,1028.35
2018-05-06T10:29:22.444Z,1028.38
2018-05-06T10:30:22.455Z,1028.37
2018-05-06T10:31:22.488Z,1028.38
2018-05-06T10:32:22.514Z,1028.37
2018-05-06T10:33:22.545Z,1028.34
2018-05-06T10:34:22.567Z,1028.33
2018-05-06T10:35:22.608Z,1028.37
2018-05-06T10:36:22.629Z,1028.35
2018-05-06T10:37:22.651Z,1028.37
2018-05-06T10:38:22.691Z,1028.36
2018-05-06T10:39:22.704Z,1028.35
2018-05-06T10:40:22.734Z,1028.32
2018-05-06T10:41:22.762Z,1028.36
2018-05-06T10:42:22.829Z,1028.32
2018-05-06T10:43:22.814Z,1028.33
2018-05-06T10:44:22.933Z,1028.32
2018-05-06T10:45:22.878Z,1028.38
2018-05-06T10:46:22.899Z,1028.40
2018-05-06T10:47:22.925Z,1028.40
2018-05-06T10:48:22.959Z,1028.40
2018-05-06T10:49:23.051Z,1028.37
2018-05-06T10:50:23.013Z,1028.41
2018-05-06T10:51:23.034Z,1028.41
2018-05-06T10:52:23.069Z,1028.44
2018-05-06T10:53:23.094Z,1028.45
2018-05-06T10:54:23.117Z,1028.54
2018-05-06T10:55:23.152Z,1028.67
2018-05-06T10:56:23.179Z,1028.77
2018-05-06T10:57:23.215Z,1028.80
2018-05-06T10:58:23.233Z,1028.86
2018-05-06T10:59:23.263Z,1028.87
2018-05-06T11:00:23.294Z,1028.85
2018-05-06T11:01:23.322Z,1028.91
2018-05-06T11:02:23.357Z,1028.95
2018-05-06T11:03:23.387Z,1028.92
2018-05-06T11:04:23.421Z,1028.91
2018-05-06T11:05:23.446Z,1028.96
2018-05-06T11:06:23.479Z,1028.94
2018-05-06T11:07:23.508Z,1029.00
2018-05-06T11:08:23.539Z,1029.09
2018-05-06T11:09:23.576Z,1029.11
2018-05-06T11:10:23.692Z,1029.10
2018-05-06T11:11:23.639Z,1029.07
2018-05-06T11:12:23.678Z,1029.12
2018-05-06T11:13:23.706Z,1029.12
2018-05-06T11:14:23.737Z,1029.15
2018-05-06T11:15:23.777Z,1029.16
2018-05-06T11:16:23.811Z,1029.20
2018-05-06T11:17:23.841Z,1029.16
2018-05-06T11:18:23.873Z,1029.24
2018-05-06T11:19:23.907Z,1029.21
2018-05-06T11:20:23.943Z,1029.29
2018-05-06T11:21:23.980Z,1029.23
2018-05-06T11:22:24.012Z,1029.15
2018-05-06T11:23:24.050Z,1029.14
2018-05-06T11:24:24.081Z,1029.20
2018-05-06T11:25:24.122Z,1029.32
2018-05-06T11:26:24.156Z,1029.31
2018-05-06T11:27:24.195Z,1029.30
2018-05-06T11:28:24.231Z,1029.35
2018-05-06T11:29:24.271Z,1029.34
2018-05-06T11:30:24.303Z,1029.32
2018-05-06T11:31:24.337Z,1029.33
2018-05-06T11:32:24.375Z,1029.33
2018-05-06T11:33:24.495Z,1029.32
2018-05-06T11:34:24.451Z,1029.34
2018-05-06T11:35:24.487Z,1029.37
2018-05-06T11:36:24.526Z,1029.35
2018-05-06T11:37:24.570Z,1029.39
2018-05-06T11:38:24.601Z,1029.42
2018-05-06T11:39:24.641Z,1029.42
2018-05-06T11:40:24.685Z,1029.43
2018-05-06T11:41:24.715Z,1029.51
2018-05-06T11:42:24.759Z,1029.54
2018-05-06T11:43:24.790Z,1029.60
2018-05-06T11:44:24.832Z,1029.73
2018-05-06T11:45:24.873Z,1029.88
2018-05-06T11:46:24.909Z,1030.02
2018-05-06T11:47:24.946Z,1030.21
2018-05-06T11:48:24.989Z,1030.47
2018-05-06T11:49:25.021Z,1030.89
2018-05-06T11:50:25.064Z,1031.34
2018-05-06T11:51:25.101Z,1031.97
2018-05-06T11:52:25.138Z,1032.70
2018-05-06T11:53:25.175Z,1033.20
2018-05-06T11:54:25.215Z,1034.38
2018-05-06T11:55:25.257Z,1036.26
2018-05-06T11:56:25.347Z,1037.48
2018-05-06T11:57:25.330Z,1038.52
2018-05-06T11:58:25.375Z,1038.27
2018-05-06T11:59:25.410Z,1038.78
2018-05-06T12:00:25.450Z,1041.55
2018-05-06T12:01:25.491Z,1044.65
2018-05-06T12:02:25.553Z,1046.40
2018-05-06T12:03:25.573Z,1047.38
2018-05-06T12:04:25.634Z,1048.89
2018-05-06T12:05:25.649Z,1048.89
2018-05-06T12:06:25.689Z,1050.84
2018-05-06T12:07:25.731Z,1051.32
2018-05-06T12:08:25.769Z,1052.34